Knoxville, Tennessee
Current Conditions -  °F | °C
As of 4:53 AM on Tuesday 21 Oct 2014 (Local Time) from KTYS Reporting Station
Scattered Clouds Scattered Clouds  
Wind Chill: 11°   Ceiling: Unl
Heat Index: 11°   Visibility: 10mi
Dew Point:   Wind: 8mph
Humidity: 89%   Direction: 240°WSW
Pressure: 29.98"   Gusts: NA
Location:  35.96°N, 83.92°W
Report Text: KTYS 210853Z 24007KT 10SM SCT046 11/09 A2998 RMK AO2 SLP149 T01110094 58005
Loading
Personal Weather Stations






























Interactive Weather Map New forecast layout! Learn more

10-Day Weather Forecast

Advertisements
Track Severe Weather on mobile